Time;durP1;ratioP1;P1;durP2;ratioP2;P2;SDS_P1;SDS_P2;PMS_P1;PMS_P2;Temp;Humidity;BMP_temperature;BMP_pressure;BME280_temperature;BME280_humidity;BME280_pressure;Samples;Min_cycle;Max_cycle;Signal;HPM_P1;HPM_P2
2021/09/23 00:02:15;;;;;;;4.40;2.60;;;12.70;99.90;;;;;;5018130;28;20392;-88
2021/09/23 00:04:42;;;;;;;4.00;2.70;;;12.50;99.90;;;;;;5018123;28;20026;-87
2021/09/23 00:07:08;;;;;;;4.70;2.80;;;12.30;99.90;;;;;;5017898;28;20033;-88
2021/09/23 00:09:34;;;;;;;4.07;3.00;;;12.30;99.90;;;;;;5017972;28;20028;-88
2021/09/23 00:11:59;;;;;;;6.25;3.20;;;12.30;99.90;;;;;;5017828;28;20029;-87
2021/09/23 00:14:25;;;;;;;4.82;3.13;;;12.40;99.90;;;;;;5035664;28;20028;-88
2021/09/23 00:16:51;;;;;;;3.35;2.60;;;12.60;99.90;;;;;;5035596;28;20109;-88
2021/09/23 00:19:18;;;;;;;3.95;2.47;;;12.70;99.90;;;;;;5017832;28;20076;-88
2021/09/23 00:21:44;;;;;;;7.47;2.92;;;12.30;99.90;;;;;;5017695;28;20026;-88
2021/09/23 00:24:10;;;;;;;8.43;2.88;;;12.30;99.90;;;;;;5035371;28;20044;-88
2021/09/23 00:26:36;;;;;;;4.22;2.67;;;12.40;99.90;;;;;;5035273;28;20396;-88
2021/09/23 00:29:03;;;;;;;5.30;3.03;;;12.40;99.90;;;;;;5035328;28;20097;-88
2021/09/23 00:31:30;;;;;;;4.30;2.67;;;12.60;99.90;;;;;;5017647;28;20017;-88
2021/09/23 00:33:56;;;;;;;4.38;2.63;;;12.60;99.90;;;;;;5017701;28;20025;-87
2021/09/23 00:36:22;;;;;;;4.22;2.88;;;12.40;99.90;;;;;;5017189;28;20443;-88
2021/09/23 00:38:47;;;;;;;5.60;3.20;;;12.40;99.90;;;;;;5035202;28;20033;-88
2021/09/23 00:41:14;;;;;;;6.22;2.70;;;12.40;99.90;;;;;;5017420;28;20099;-88
2021/09/23 00:43:39;;;;;;;6.65;2.70;;;12.70;99.90;;;;;;5017203;28;20056;-88
2021/09/23 00:46:05;;;;;;;5.07;2.80;;;12.60;99.90;;;;;;5017346;28;20072;-88
2021/09/23 00:48:31;;;;;;;4.95;2.95;;;12.60;99.90;;;;;;5017180;28;20029;-88
2021/09/23 00:50:58;;;;;;;3.50;2.92;;;12.50;99.90;;;;;;5017065;28;20049;-88
2021/09/23 00:53:26;;;;;;;4.75;2.83;;;12.40;99.90;;;;;;5017098;28;20072;-88
2021/09/23 00:55:53;;;;;;;4.05;2.42;;;12.40;99.90;;;;;;5034260;28;20076;-88
2021/09/23 00:58:19;;;;;;;4.00;3.03;;;12.60;99.90;;;;;;5053495;28;20104;-88
2021/09/23 01:00:45;;;;;;;3.63;2.40;;;12.70;99.90;;;;;;5053844;28;20107;-88
2021/09/23 01:03:12;;;;;;;4.68;2.83;;;12.80;99.90;;;;;;5054776;28;20023;-88
2021/09/23 01:05:38;;;;;;;4.15;2.92;;;12.70;99.90;;;;;;5054237;28;20043;-88
2021/09/23 01:08:04;;;;;;;6.35;2.65;;;12.60;99.90;;;;;;5054979;28;20029;-88
2021/09/23 01:10:30;;;;;;;3.92;2.53;;;12.50;99.90;;;;;;5055061;28;20029;-88
2021/09/23 01:12:56;;;;;;;4.97;2.40;;;12.70;99.90;;;;;;5053453;28;20021;-88
2021/09/23 01:15:22;;;;;;;4.70;3.10;;;12.60;99.90;;;;;;5053772;28;20083;-88
2021/09/23 01:17:48;;;;;;;3.95;2.53;;;12.50;99.90;;;;;;5053072;28;20485;-88
2021/09/23 01:20:15;;;;;;;6.05;2.92;;;12.60;99.90;;;;;;5053122;28;20040;-87
2021/09/23 01:22:41;;;;;;;5.75;2.70;;;12.20;99.90;;;;;;5053012;28;20033;-88
2021/09/23 01:25:08;;;;;;;3.53;2.72;;;12.10;99.90;;;;;;5053837;28;20056;-87
2021/09/23 01:27:34;;;;;;;5.65;2.92;;;12.20;99.90;;;;;;5052938;28;20509;-88
2021/09/23 01:30:02;;;;;;;5.15;2.67;;;12.20;99.90;;;;;;5053063;28;20028;-87
2021/09/23 01:32:28;;;;;;;5.05;2.90;;;12.20;99.90;;;;;;5052851;28;20392;-88
2021/09/23 01:34:54;;;;;;;4.32;2.55;;;12.30;99.90;;;;;;5053177;28;20017;-88
2021/09/23 01:37:20;;;;;;;6.22;2.88;;;12.10;99.90;;;;;;5054091;28;20029;-88
2021/09/23 01:39:46;;;;;;;10.27;3.05;;;12.10;99.90;;;;;;5052920;28;20083;-89
2021/09/23 01:42:11;;;;;;;3.67;2.42;;;11.90;99.90;;;;;;5052651;28;20032;-88
2021/09/23 01:44:37;;;;;;;4.03;2.70;;;11.90;99.90;;;;;;5052653;28;20029;-88
2021/09/23 01:47:04;;;;;;;4.00;2.60;;;11.50;99.90;;;;;;5052422;28;20550;-88
2021/09/23 01:49:29;;;;;;;6.63;2.80;;;11.30;99.90;;;;;;5052737;28;20484;-87
2021/09/23 01:51:55;;;;;;;4.88;2.90;;;11.10;99.90;;;;;;5052519;28;20024;-87
2021/09/23 01:54:21;;;;;;;3.92;2.70;;;11.10;99.90;;;;;;5052636;28;20116;-88
2021/09/23 01:56:52;;;;;;;5.32;2.80;;;11.20;99.90;;;;;;5052340;28;20128;-87
2021/09/23 01:59:18;;;;;;;3.83;2.60;;;11.40;99.90;;;;;;5054010;28;20531;-87
2021/09/23 02:01:44;;;;;;;7.88;2.97;;;11.40;99.90;;;;;;5052450;28;20373;-88
2021/09/23 02:04:10;;;;;;;4.13;2.70;;;11.20;99.90;;;;;;5054184;28;20055;-88
2021/09/23 02:06:35;;;;;;;5.20;2.65;;;11.20;99.90;;;;;;5052551;28;20502;-89
2021/09/23 02:09:01;;;;;;;6.07;2.63;;;11.00;99.90;;;;;;5052629;28;20044;-88
2021/09/23 02:11:27;;;;;;;4.32;2.40;;;11.30;99.90;;;;;;5052392;28;20017;-88
2021/09/23 02:13:53;;;;;;;4.30;2.78;;;11.80;99.90;;;;;;5052576;28;20550;-87
2021/09/23 02:16:19;;;;;;;4.07;3.10;;;11.80;99.90;;;;;;5052495;28;20111;-88
2021/09/23 02:18:45;;;;;;;4.72;2.58;;;11.60;99.90;;;;;;5051891;28;20115;-87
2021/09/23 02:21:11;;;;;;;3.78;2.95;;;11.70;99.90;;;;;;5052332;28;20029;-88
2021/09/23 02:23:38;;;;;;;6.45;2.83;;;11.30;99.90;;;;;;5052398;28;20021;-88
2021/09/23 02:26:04;;;;;;;3.88;2.55;;;11.50;99.90;;;;;;5054256;28;20025;-88
2021/09/23 02:28:30;;;;;;;4.82;2.45;;;11.20;99.90;;;;;;5052470;28;20021;-88
2021/09/23 02:30:56;;;;;;;3.47;2.90;;;11.00;99.90;;;;;;5052290;28;20021;-88
2021/09/23 02:33:22;;;;;;;4.47;2.92;;;11.20;99.90;;;;;;5052191;28;20029;-88
2021/09/23 02:35:47;;;;;;;3.63;2.58;;;11.10;99.90;;;;;;5052388;28;20021;-88
2021/09/23 02:38:13;;;;;;;4.90;2.70;;;11.40;99.90;;;;;;5052417;28;20059;-87
2021/09/23 02:40:39;;;;;;;4.68;2.75;;;11.00;99.90;;;;;;5052539;28;20485;-88
2021/09/23 02:43:05;;;;;;;3.53;2.65;;;11.00;99.90;;;;;;5053807;28;20512;-88
2021/09/23 02:45:31;;;;;;;3.60;2.10;;;11.10;99.90;;;;;;5052399;28;20366;-88
2021/09/23 02:47:56;;;;;;;6.38;3.20;;;11.10;99.90;;;;;;5052162;28;20033;-88
2021/09/23 02:50:22;;;;;;;4.05;2.55;;;11.20;99.90;;;;;;5052615;28;20048;-88
2021/09/23 02:52:49;;;;;;;4.63;2.95;;;11.10;99.90;;;;;;5052328;28;20021;-87
2021/09/23 02:55:14;;;;;;;5.78;3.05;;;11.30;99.90;;;;;;5051769;28;20528;-87
2021/09/23 02:57:40;;;;;;;3.05;2.10;;;11.70;99.90;;;;;;5051919;28;20029;-86
2021/09/23 03:00:07;;;;;;;3.83;2.97;;;11.90;99.90;;;;;;5051893;28;20060;-87
2021/09/23 03:02:32;;;;;;;2.63;2.33;;;11.80;99.90;;;;;;5052326;28;20032;-87
2021/09/23 03:04:58;;;;;;;6.10;3.05;;;11.80;99.90;;;;;;5052081;28;20029;-86
2021/09/23 03:07:24;;;;;;;4.97;2.65;;;10.90;99.90;;;;;;5053437;28;20029;-87
2021/09/23 03:09:49;;;;;;;6.50;3.20;;;11.00;99.90;;;;;;5051993;28;20485;-87
2021/09/23 03:12:15;;;;;;;6.90;3.00;;;10.70;99.90;;;;;;5051856;28;20032;-86
2021/09/23 03:14:41;;;;;;;4.05;2.92;;;10.60;99.90;;;;;;5052000;28;20025;-86
2021/09/23 03:17:06;;;;;;;3.53;2.67;;;10.40;99.90;;;;;;5051713;28;20538;-86
2021/09/23 03:19:34;;;;;;;2.95;2.65;;;10.70;99.90;;;;;;5051926;28;20079;-87
2021/09/23 03:22:00;;;;;;;5.07;2.83;;;10.80;99.90;;;;;;5052724;28;20078;-87
2021/09/23 03:24:25;;;;;;;4.43;2.42;;;10.70;99.90;;;;;;5054225;28;20092;-86
2021/09/23 03:26:51;;;;;;;4.22;2.65;;;10.90;99.90;;;;;;5054701;28;20108;-89
2021/09/23 03:29:17;;;;;;;4.45;2.33;;;11.40;99.90;;;;;;5053348;28;20027;-89
2021/09/23 03:31:43;;;;;;;4.85;2.53;;;11.50;99.90;;;;;;5055613;28;20108;-89
2021/09/23 03:34:09;;;;;;;6.20;2.80;;;11.40;99.90;;;;;;5055197;28;20025;-89
2021/09/23 03:36:35;;;;;;;3.38;2.35;;;11.40;99.90;;;;;;5055219;28;20068;-88
2021/09/23 03:39:00;;;;;;;5.00;3.00;;;11.60;99.90;;;;;;5055626;28;20021;-88
2021/09/23 03:41:26;;;;;;;4.65;2.53;;;11.60;99.90;;;;;;5057022;28;20025;-88
2021/09/23 03:43:52;;;;;;;4.43;2.65;;;11.40;99.90;;;;;;5056460;28;20080;-88
2021/09/23 03:46:18;;;;;;;3.63;2.40;;;11.20;99.90;;;;;;5056387;28;20053;-88
2021/09/23 03:48:44;;;;;;;5.65;3.00;;;11.20;99.90;;;;;;5055075;28;20025;-88
2021/09/23 03:51:13;;;;;;;5.43;2.95;;;10.90;99.90;;;;;;5055322;28;20089;-88
2021/09/23 03:53:39;;;;;;;2.47;2.03;;;10.70;99.90;;;;;;5055172;28;20393;-88
2021/09/23 03:56:12;;;;;;;3.83;2.60;;;10.50;99.90;;;;;;5054796;28;20045;-88
2021/09/23 03:58:39;;;;;;;4.85;2.70;;;11.00;99.90;;;;;;5055043;28;20393;-88
2021/09/23 04:01:05;;;;;;;4.97;3.03;;;10.80;99.90;;;;;;5056361;28;20029;-88
2021/09/23 04:03:31;;;;;;;5.15;2.90;;;10.80;99.90;;;;;;5054799;28;20390;-88
2021/09/23 04:05:57;;;;;;;4.38;2.63;;;10.60;99.90;;;;;;5054728;28;20021;-88
2021/09/23 04:08:22;;;;;;;7.18;3.20;;;10.60;99.90;;;;;;5054640;28;20021;-88
2021/09/23 04:10:48;;;;;;;2.17;1.83;;;10.60;99.90;;;;;;5056191;28;20031;-88
2021/09/23 04:13:14;;;;;;;5.00;2.88;;;10.80;99.90;;;;;;5054675;28;20029;-88
2021/09/23 04:15:39;;;;;;;5.20;3.13;;;10.70;99.90;;;;;;5054576;28;20090;-89
2021/09/23 04:18:05;;;;;;;8.07;2.72;;;10.80;99.90;;;;;;5054448;28;20052;-89
2021/09/23 04:20:31;;;;;;;4.97;2.97;;;10.50;99.90;;;;;;5054342;28;20021;-88
2021/09/23 04:22:57;;;;;;;6.93;2.65;;;10.50;99.90;;;;;;5055839;28;20079;-88
2021/09/23 04:25:22;;;;;;;4.43;3.08;;;10.30;99.90;;;;;;5054104;28;20481;-88
2021/09/23 04:27:50;;;;;;;8.43;2.85;;;10.40;99.90;;;;;;5055296;28;20021;-88
2021/09/23 04:30:16;;;;;;;6.45;2.78;;;10.50;99.90;;;;;;5054248;28;20021;-89
2021/09/23 04:32:42;;;;;;;4.05;2.67;;;10.40;99.90;;;;;;5054066;28;20021;-88
2021/09/23 04:35:08;;;;;;;4.60;2.67;;;10.40;99.90;;;;;;5054898;28;20029;-88
2021/09/23 04:37:33;;;;;;;5.05;2.83;;;9.90;99.90;;;;;;5053916;28;20115;-88
2021/09/23 04:39:59;;;;;;;3.80;2.47;;;9.70;99.90;;;;;;5053703;28;20027;-89
2021/09/23 04:42:25;;;;;;;3.75;2.70;;;10.30;99.90;;;;;;5053264;28;20025;-88
2021/09/23 04:44:50;;;;;;;6.03;2.83;;;9.90;99.90;;;;;;5053609;28;20121;-88
2021/09/23 04:47:16;;;;;;;4.57;2.45;;;10.00;99.90;;;;;;5055255;28;20051;-88
2021/09/23 04:49:44;;;;;;;7.13;2.90;;;10.40;99.90;;;;;;5053599;28;20040;-88
2021/09/23 04:52:10;;;;;;;4.03;2.88;;;10.20;99.90;;;;;;5054995;28;20021;-88
2021/09/23 04:54:36;;;;;;;4.80;3.00;;;10.30;99.90;;;;;;5053516;28;20059;-88
2021/09/23 04:57:02;;;;;;;7.35;2.70;;;10.30;99.90;;;;;;5053359;28;20049;-88
2021/09/23 04:59:28;;;;;;;4.45;2.88;;;10.30;99.90;;;;;;5053439;28;20477;-88
2021/09/23 05:01:54;;;;;;;5.10;2.90;;;10.20;99.90;;;;;;5054595;28;20035;-88
2021/09/23 05:04:19;;;;;;;7.43;2.83;;;10.40;99.90;;;;;;5053328;28;20021;-88
2021/09/23 05:06:45;;;;;;;3.65;2.35;;;10.60;99.90;;;;;;5053291;28;20032;-88
2021/09/23 05:09:11;;;;;;;4.45;2.72;;;10.80;99.90;;;;;;5053434;28;20477;-88
2021/09/23 05:11:37;;;;;;;6.95;2.90;;;10.90;99.90;;;;;;5053187;28;20052;-88
2021/09/23 05:14:04;;;;;;;2.85;2.20;;;11.00;99.90;;;;;;5054408;28;20036;-88
2021/09/23 05:16:29;;;;;;;5.55;2.72;;;11.30;99.90;;;;;;5052968;28;20389;-88
2021/09/23 05:18:55;;;;;;;3.60;2.03;;;10.80;99.90;;;;;;5052915;28;20036;-88
2021/09/23 05:21:21;;;;;;;7.13;2.63;;;10.90;99.90;;;;;;5054273;28;20083;-88
2021/09/23 05:23:47;;;;;;;4.68;2.65;;;10.90;99.90;;;;;;5053721;28;20025;-88
2021/09/23 05:26:12;;;;;;;3.58;2.22;;;11.20;99.90;;;;;;5054173;28;20498;-88
2021/09/23 05:28:38;;;;;;;5.45;2.30;;;11.20;99.90;;;;;;5054004;28;20094;-88
2021/09/23 05:31:05;;;;;;;4.60;2.42;;;11.30;99.90;;;;;;5054721;28;20365;-88
2021/09/23 05:33:31;;;;;;;4.38;3.15;;;11.40;99.90;;;;;;5053169;28;20021;-88
2021/09/23 05:35:57;;;;;;;3.72;2.83;;;10.70;99.90;;;;;;5054149;28;20087;-88
2021/09/23 05:38:23;;;;;;;5.78;3.03;;;10.50;99.90;;;;;;5054809;28;20472;-88
2021/09/23 05:40:50;;;;;;;4.00;2.85;;;10.30;99.90;;;;;;5052951;28;20067;-88
2021/09/23 05:43:16;;;;;;;6.35;2.40;;;10.50;99.90;;;;;;5053046;28;20421;-88
2021/09/23 05:45:41;;;;;;;3.22;2.33;;;10.70;99.90;;;;;;5052633;28;20025;-88
2021/09/23 05:48:07;;;;;;;3.67;2.47;;;10.70;99.90;;;;;;5052572;28;20047;-88
2021/09/23 05:50:33;;;;;;;6.15;2.80;;;10.90;99.90;;;;;;5052684;28;20025;-88
2021/09/23 05:52:59;;;;;;;4.43;2.50;;;10.90;99.90;;;;;;5053002;28;20423;-88
2021/09/23 05:55:25;;;;;;;7.00;3.10;;;11.10;99.90;;;;;;5052266;28;20052;-88
2021/09/23 05:57:51;;;;;;;3.75;2.53;;;11.20;99.90;;;;;;5052742;28;20031;-88
2021/09/23 06:00:18;;;;;;;5.18;3.03;;;11.20;99.90;;;;;;5052486;28;20037;-87
2021/09/23 06:02:45;;;;;;;4.07;2.50;;;11.00;99.90;;;;;;5053535;28;20121;-88
2021/09/23 06:05:13;;;;;;;10.13;2.63;;;11.10;99.90;;;;;;5053733;28;20025;-88
2021/09/23 06:07:40;;;;;;;4.10;2.30;;;11.20;99.90;;;;;;5052195;28;20428;-88
2021/09/23 06:10:08;;;;;;;3.67;2.67;;;11.20;99.90;;;;;;5052237;28;20025;-87
2021/09/23 06:12:35;;;;;;;7.57;2.60;;;11.40;99.90;;;;;;5053481;28;20388;-88
2021/09/23 06:15:01;;;;;;;8.80;3.00;;;11.60;99.90;;;;;;5052148;28;20028;-88
2021/09/23 06:17:27;;;;;;;4.85;2.75;;;11.50;99.90;;;;;;5053451;28;20025;-88
2021/09/23 06:19:52;;;;;;;3.17;2.63;;;11.40;99.90;;;;;;5052057;28;20095;-88
2021/09/23 06:22:18;;;;;;;4.65;2.83;;;11.10;99.90;;;;;;5053510;28;20036;-87
2021/09/23 06:24:44;;;;;;;6.32;2.85;;;10.90;99.90;;;;;;5052104;28;20059;-87
2021/09/23 06:27:10;;;;;;;3.33;2.42;;;11.10;99.90;;;;;;5051928;28;20523;-88
2021/09/23 06:29:35;;;;;;;7.50;3.00;;;11.60;99.90;;;;;;5052054;28;20029;-88
2021/09/23 06:32:02;;;;;;;3.90;2.45;;;11.80;99.90;;;;;;5052483;28;20479;-87
2021/09/23 06:34:27;;;;;;;5.85;2.05;;;12.00;99.90;;;;;;5052459;28;20028;-87
2021/09/23 06:36:53;;;;;;;4.13;2.70;;;12.40;99.90;;;;;;5051778;28;20435;-88
2021/09/23 06:39:19;;;;;;;4.97;2.97;;;12.40;99.90;;;;;;5051939;28;20568;-88
2021/09/23 06:41:45;;;;;;;7.82;3.13;;;12.10;99.90;;;;;;5051877;28;20119;-87
2021/09/23 06:44:11;;;;;;;8.05;3.15;;;12.00;99.90;;;;;;5051904;28;20056;-87
2021/09/23 06:46:36;;;;;;;5.82;3.40;;;12.00;99.90;;;;;;5051792;28;20032;-87
2021/09/23 06:49:03;;;;;;;4.78;3.65;;;12.00;99.90;;;;;;5051791;28;20031;-87
2021/09/23 06:51:29;;;;;;;5.32;3.33;;;11.90;99.90;;;;;;5051914;28;20017;-88
2021/09/23 06:53:56;;;;;;;12.38;3.50;;;12.10;99.90;;;;;;5051844;28;20036;-87
2021/09/23 06:56:22;;;;;;;3.47;2.90;;;12.20;99.90;;;;;;5051655;28;20052;-87
2021/09/23 06:58:48;;;;;;;5.88;3.20;;;12.30;99.90;;;;;;5053003;28;20029;-87
2021/09/23 07:01:14;;;;;;;10.07;3.05;;;12.40;99.90;;;;;;5052066;28;20179;-87
2021/09/23 07:03:39;;;;;;;3.58;2.75;;;12.60;99.90;;;;;;5052197;28;20075;-87
2021/09/23 07:06:05;;;;;;;6.93;3.35;;;12.90;99.90;;;;;;5057225;28;20095;-87
2021/09/23 07:08:31;;;;;;;5.07;3.00;;;13.10;99.90;;;;;;5055762;28;20021;-87
2021/09/23 07:10:57;;;;;;;5.47;2.35;;;13.30;99.90;;;;;;5056793;28;20048;-87
2021/09/23 07:13:23;;;;;;;3.72;2.63;;;13.50;99.90;;;;;;5056876;28;20102;-87
2021/09/23 07:15:49;;;;;;;4.30;2.97;;;13.60;99.90;;;;;;5055417;28;20025;-86
2021/09/23 07:18:14;;;;;;;3.58;2.53;;;13.80;99.90;;;;;;5055533;28;20029;-87
2021/09/23 07:20:40;;;;;;;9.82;3.60;;;13.80;99.90;;;;;;5056684;28;20028;-86
2021/09/23 07:23:06;;;;;;;5.93;2.97;;;14.00;99.90;;;;;;5055565;28;20021;-87
2021/09/23 07:25:33;;;;;;;4.18;2.60;;;14.20;99.90;;;;;;5056540;28;20033;-87
2021/09/23 07:28:00;;;;;;;4.60;2.80;;;14.30;99.90;;;;;;5056316;28;20083;-86
2021/09/23 07:30:26;;;;;;;8.27;3.53;;;14.30;99.90;;;;;;5058074;28;20468;-86
2021/09/23 07:32:52;;;;;;;4.47;2.75;;;14.30;99.90;;;;;;5056982;28;20021;-86
2021/09/23 07:35:17;;;;;;;5.53;3.13;;;14.40;99.90;;;;;;5056051;28;20025;-86
2021/09/23 07:37:43;;;;;;;6.32;3.30;;;14.50;99.90;;;;;;5056578;28;20396;-86
2021/09/23 07:40:11;;;;;;;6.70;2.88;;;14.70;99.90;;;;;;5056805;28;20489;-87
2021/09/23 07:42:38;;;;;;;6.07;3.15;;;14.90;99.90;;;;;;5056254;28;20606;-86
2021/09/23 07:45:05;;;;;;;4.07;2.70;;;15.00;99.90;;;;;;5057674;28;20429;-86
2021/09/23 07:47:31;;;;;;;6.10;3.05;;;15.00;99.90;;;;;;5058959;28;20392;-86
2021/09/23 07:49:57;;;;;;;5.90;2.95;;;15.00;99.90;;;;;;5061233;28;20021;-86
2021/09/23 07:52:23;;;;;;;4.20;2.83;;;15.20;99.90;;;;;;5061251;28;20427;-86
2021/09/23 07:54:52;;;;;;;7.35;3.35;;;15.40;99.90;;;;;;5058858;28;20053;-86
2021/09/23 07:57:18;;;;;;;4.78;2.55;;;15.50;99.90;;;;;;5025352;28;20171;-86
2021/09/23 07:59:44;;;;;;;3.33;2.63;;;15.50;99.90;;;;;;5041730;28;20025;-86
2021/09/23 08:02:10;;;;;;;5.95;2.45;;;15.70;99.90;;;;;;5024167;28;20125;-86
2021/09/23 08:04:36;;;;;;;7.78;2.95;;;15.80;99.90;;;;;;5025203;28;20026;-86
2021/09/23 08:07:02;;;;;;;2.63;1.92;;;15.90;99.90;;;;;;5025782;28;20117;-86
2021/09/23 08:09:27;;;;;;;4.10;2.25;;;16.20;99.90;;;;;;5024602;28;20362;-86
2021/09/23 08:11:53;;;;;;;5.10;2.65;;;16.00;99.90;;;;;;5027492;28;20033;-85
2021/09/23 08:14:19;;;;;;;5.60;2.88;;;15.90;99.90;;;;;;5022356;28;20112;-86
2021/09/23 08:16:44;;;;;;;5.80;2.40;;;16.10;99.90;;;;;;5020394;28;20029;-86
2021/09/23 08:19:11;;;;;;;5.38;1.95;;;16.20;99.90;;;;;;5038875;28;20025;-86
2021/09/23 08:21:37;;;;;;;6.57;2.63;;;16.40;99.90;;;;;;5022498;28;20048;-86
2021/09/23 08:24:03;;;;;;;8.25;2.80;;;16.50;99.90;;;;;;5020083;28;20045;-86
2021/09/23 08:26:29;;;;;;;6.22;2.40;;;16.60;99.90;;;;;;5019918;28;20128;-86
2021/09/23 08:28:55;;;;;;;4.10;1.80;;;16.80;99.90;;;;;;5019820;28;20021;-86
2021/09/23 08:31:22;;;;;;;3.40;2.30;;;16.80;99.90;;;;;;5019129;28;20085;-86
2021/09/23 08:33:48;;;;;;;5.43;2.28;;;17.00;99.90;;;;;;5036527;28;20017;-86
2021/09/23 08:36:14;;;;;;;6.00;2.20;;;17.20;99.90;;;;;;5035418;28;20034;-86
2021/09/23 08:38:40;;;;;;;4.88;2.83;;;17.20;99.90;;;;;;5017311;28;20040;-84
2021/09/23 08:41:05;;;;;;;5.78;2.03;;;17.40;99.90;;;;;;5017061;28;20120;-84
2021/09/23 08:43:32;;;;;;;3.10;2.13;;;17.60;99.90;;;;;;5035179;28;20044;-86
2021/09/23 08:45:58;;;;;;;5.05;2.00;;;17.70;99.90;;;;;;5017067;28;20025;-86
2021/09/23 08:48:25;;;;;;;3.17;1.80;;;17.80;99.90;;;;;;5035336;28;20412;-86
2021/09/23 08:50:51;;;;;;;5.32;2.10;;;17.90;99.90;;;;;;5017131;28;20496;-86
2021/09/23 08:53:17;;;;;;;6.45;2.15;;;17.90;99.90;;;;;;5034924;28;20104;-86
2021/09/23 08:55:43;;;;;;;5.30;1.90;;;18.10;99.90;;;;;;5031212;28;20091;-86
2021/09/23 08:58:09;;;;;;;4.15;1.90;;;18.10;99.90;;;;;;5053317;28;20021;-87
2021/09/23 09:00:56;;;;;;;3.47;1.92;;;18.20;99.90;;;;;;5053200;28;20439;-86
2021/09/23 09:03:25;;;;;;;3.03;1.45;;;18.30;99.90;;;;;;5052974;28;20021;-85
2021/09/23 09:05:55;;;;;;;2.53;1.50;;;18.50;99.90;;;;;;5053237;28;20029;-86
2021/09/23 09:08:28;;;;;;;2.95;1.60;;;18.70;99.90;;;;;;5053499;28;20028;-86
2021/09/23 09:10:54;;;;;;;3.67;1.65;;;18.70;99.90;;;;;;5053135;28;20021;-86
2021/09/23 09:13:19;;;;;;;3.58;1.70;;;18.90;99.90;;;;;;5054319;28;20021;-85
2021/09/23 09:15:45;;;;;;;3.95;2.00;;;18.80;99.90;;;;;;5052965;28;20029;-85
2021/09/23 09:18:18;;;;;;;4.70;1.63;;;19.00;99.90;;;;;;5052923;28;20029;-86
2021/09/23 09:21:01;;;;;;;4.32;1.80;;;19.10;99.90;;;;;;5052935;28;20497;-86
2021/09/23 09:23:36;;;;;;;7.18;1.85;;;18.90;99.90;;;;;;5052793;28;20121;-87
2021/09/23 09:26:02;;;;;;;2.20;1.67;;;19.00;99.90;;;;;;5054018;28;20028;-86
2021/09/23 09:28:28;;;;;;;4.63;1.85;;;19.20;99.90;;;;;;5053720;28;20415;-86
2021/09/23 09:30:59;;;;;;;3.30;2.08;;;19.40;99.90;;;;;;5052667;28;20417;-85
2021/09/23 09:33:37;;;;;;;6.43;1.95;;;19.50;99.90;;;;;;5053916;28;20133;-86
2021/09/23 09:36:05;;;;;;;3.40;1.60;;;19.50;99.90;;;;;;5052521;28;20056;-86
2021/09/23 09:38:32;;;;;;;5.18;1.60;;;19.70;99.90;;;;;;5053764;28;20020;-86
2021/09/23 09:41:02;;;;;;;6.50;1.70;;;19.80;99.90;;;;;;5052463;28;20025;-86
2021/09/23 09:43:31;;;;;;;3.28;1.73;;;20.10;99.90;;;;;;5052472;28;20146;-86
2021/09/23 09:45:57;;;;;;;3.55;1.73;;;20.00;99.90;;;;;;5053561;28;20017;-86
2021/09/23 09:48:30;;;;;;;4.93;1.60;;;20.00;99.90;;;;;;5052594;28;20484;-86
2021/09/23 09:51:01;;;;;;;2.58;1.67;;;20.20;99.90;;;;;;5053502;28;20043;-88
2021/09/23 09:53:28;;;;;;;4.47;2.10;;;20.50;99.90;;;;;;5053504;28;20488;-87
2021/09/23 09:55:54;;;;;;;4.45;2.00;;;20.60;99.90;;;;;;5052124;28;20570;-87
2021/09/23 09:58:24;;;;;;;5.45;2.25;;;20.60;99.90;;;;;;5052134;28;20029;-87
2021/09/23 10:00:50;;;;;;;6.65;2.00;;;20.60;99.90;;;;;;5053558;28;20017;-87
2021/09/23 10:03:19;;;;;;;3.90;2.35;;;20.30;99.90;;;;;;5056383;28;20052;-88
2021/09/23 10:05:45;;;;;;;7.35;2.10;;;20.30;99.90;;;;;;5057435;28;20025;-86
2021/09/23 10:08:12;;;;;;;3.97;2.17;;;20.30;99.90;;;;;;5052541;28;20388;-87
2021/09/23 10:10:39;;;;;;;4.22;1.92;;;20.40;99.90;;;;;;5052278;28;20025;-87
2021/09/23 10:13:05;;;;;;;6.15;2.22;;;20.70;99.90;;;;;;5053351;28;20025;-87
2021/09/23 10:15:31;;;;;;;7.20;2.20;;;20.90;99.90;;;;;;5052042;28;20021;-86
2021/09/23 10:18:03;;;;;;;4.22;2.10;;;21.10;99.90;;;;;;5051907;28;20055;-86
2021/09/23 10:20:29;;;;;;;5.85;2.10;;;21.20;99.90;;;;;;5051904;28;20029;-86
2021/09/23 10:22:56;;;;;;;4.10;1.73;;;21.10;99.90;;;;;;5051869;28;20481;-87
2021/09/23 10:25:32;;;;;;;5.35;1.83;;;21.30;99.90;;;;;;5053182;28;20048;-86
2021/09/23 10:28:03;;;;;;;6.88;1.90;;;21.70;99.90;;;;;;5051828;28;20032;-86
2021/09/23 10:30:38;;;;;;;4.88;2.00;;;21.80;99.90;;;;;;5051872;28;20108;-85
2021/09/23 10:33:05;;;;;;;4.70;1.80;;;22.30;99.90;;;;;;5053102;28;20104;-87
2021/09/23 10:35:31;;;;;;;4.90;1.90;;;22.40;99.90;;;;;;5052928;28;20021;-86
2021/09/23 10:38:08;;;;;;;5.43;2.00;;;22.60;99.90;;;;;;5051663;28;20025;-86
2021/09/23 10:40:37;;;;;;;3.08;1.45;;;22.90;99.90;;;;;;5056745;28;20123;-86
2021/09/23 10:43:09;;;;;;;3.75;2.00;;;22.80;99.90;;;;;;5057105;28;20025;-85
2021/09/23 10:45:35;;;;;;;4.75;2.03;;;23.30;99.90;;;;;;5057077;28;20029;-87
2021/09/23 10:48:02;;;;;;;2.88;1.50;;;22.70;99.90;;;;;;5055663;28;20025;-86
2021/09/23 10:50:31;;;;;;;5.45;1.48;;;23.00;99.90;;;;;;5056931;28;20021;-86
2021/09/23 10:52:58;;;;;;;4.28;1.70;;;23.40;99.90;;;;;;5055630;28;20025;-86
2021/09/23 10:55:25;;;;;;;2.53;1.48;;;23.30;99.90;;;;;;5055445;28;20049;-86
2021/09/23 10:57:53;;;;;;;4.40;1.70;;;23.80;99.90;;;;;;5057113;28;20032;-86
2021/09/23 11:00:24;;;;;;;6.40;1.48;;;24.20;99.30;;;;;;5057015;28;20025;-87
2021/09/23 11:02:54;;;;;;;2.72;1.63;;;24.50;99.50;;;;;;5055479;28;20025;-87
2021/09/23 11:05:21;;;;;;;4.05;1.35;;;24.90;99.00;;;;;;5055367;28;20553;-87
2021/09/23 11:07:47;;;;;;;2.95;1.50;;;25.40;97.90;;;;;;5056594;28;20495;-86
2021/09/23 11:10:21;;;;;;;5.05;1.63;;;25.50;97.30;;;;;;5055303;28;20025;-86
2021/09/23 11:12:52;;;;;;;;;;;25.20;96.90;;;;;;5055901;28;20028;-88
2021/09/23 11:15:23;;;;;;;3.58;1.40;;;25.70;96.10;;;;;;5055280;28;19905;-87
2021/09/23 11:17:51;;;;;;;2.47;1.35;;;26.40;95.00;;;;;;5055251;28;20033;-87
2021/09/23 11:20:22;;;;;;;4.45;1.27;;;26.10;94.70;;;;;;5055348;28;20021;-88
2021/09/23 11:22:51;;;;;;;3.15;1.60;;;26.00;94.50;;;;;;5055288;28;20021;-87
2021/09/23 11:25:22;;;;;;;2.42;1.10;;;26.10;94.10;;;;;;5055342;28;20078;-86
2021/09/23 11:27:49;;;;;;;2.35;1.08;;;26.30;93.40;;;;;;5056255;28;20491;-87
2021/09/23 11:30:17;;;;;;;1.70;1.23;;;26.30;93.70;;;;;;5054942;28;20393;-87
2021/09/23 11:32:51;;;;;;;2.17;1.20;;;26.80;93.00;;;;;;5056177;28;20074;-87
2021/09/23 11:35:19;;;;;;;5.85;1.40;;;26.40;93.00;;;;;;5056070;28;20033;-87
2021/09/23 11:37:45;;;;;;;5.03;1.30;;;26.10;93.00;;;;;;5054687;28;20037;-87
2021/09/23 11:40:12;;;;;;;3.28;1.30;;;26.90;92.30;;;;;;5054889;28;20171;-87
2021/09/23 11:42:43;;;;;;;2.58;1.30;;;27.30;92.00;;;;;;5054702;28;20108;-86
2021/09/23 11:45:22;;;;;;;1.85;1.10;;;27.60;91.20;;;;;;5054704;28;20021;-87
2021/09/23 11:47:52;;;;;;;2.60;1.35;;;27.80;90.70;;;;;;5054626;28;20033;-87
2021/09/23 11:50:36;;;;;;;1.67;1.23;;;28.60;93.20;;;;;;5056042;28;20024;-87
2021/09/23 11:53:12;;;;;;;1.83;1.20;;;28.40;87.70;;;;;;5054586;28;20036;-87
2021/09/23 11:55:42;;;;;;;2.35;1.35;;;28.60;99.90;;;;;;5047605;28;20489;-86
2021/09/23 11:58:15;;;;;;;1.73;1.23;;;28.60;81.00;;;;;;5018082;28;20039;-87
2021/09/23 12:00:44;;;;;;;3.17;1.20;;;29.20;80.30;;;;;;5035833;28;20026;-87
2021/09/23 12:03:13;;;;;;;1.60;1.15;;;29.00;81.40;;;;;;5018326;28;20053;-87
2021/09/23 12:05:40;;;;;;;2.38;1.30;;;28.60;79.90;;;;;;5017918;28;20021;-85
2021/09/23 12:08:29;;;;;;;2.38;1.27;;;29.30;80.80;;;;;;5017721;28;20032;-85
2021/09/23 12:10:58;;;;;;;1.52;1.40;;;29.60;78.50;;;;;;5017775;28;20021;-85
2021/09/23 12:13:37;;;;;;;4.20;1.48;;;29.80;76.70;;;;;;5017711;28;20053;-85
2021/09/23 12:16:06;;;;;;;1.63;1.23;;;29.40;78.60;;;;;;5036005;28;20449;-89
2021/09/23 12:18:33;;;;;;;2.65;1.50;;;29.80;76.50;;;;;;5018270;28;20031;-88
2021/09/23 12:21:06;;;;;;;1.65;1.02;;;30.10;74.80;;;;;;5017910;28;20489;-87
2021/09/23 12:23:36;;;;;;;2.17;1.20;;;29.50;74.90;;;;;;5017664;28;20477;-86
2021/09/23 12:26:18;;;;;;;1.85;1.25;;;29.40;75.70;;;;;;5035216;28;20381;-84
2021/09/23 12:28:53;;;;;;;1.58;1.20;;;29.70;74.70;;;;;;5017487;28;20482;-87
2021/09/23 12:31:31;;;;;;;1.65;1.10;;;;;;;;;;5035151;28;20473;-86
2021/09/23 12:34:06;;;;;;;1.65;1.10;;;30.90;94.60;;;;;;5035107;28;20022;-88
2021/09/23 12:36:33;;;;;;;1.98;1.38;;;30.00;73.00;;;;;;5017258;28;20120;-87
2021/09/23 12:39:16;;;;;;;2.00;1.33;;;30.10;73.90;;;;;;5035302;28;20033;-87
2021/09/23 12:42:04;;;;;;;1.92;1.25;;;30.40;71.60;;;;;;5035213;28;20064;-88
2021/09/23 12:44:33;;;;;;;2.13;1.08;;;30.90;69.30;;;;;;5034994;28;20030;-88
2021/09/23 12:47:15;;;;;;;2.38;1.20;;;31.20;68.80;;;;;;5016953;28;20033;-84
2021/09/23 12:49:50;;;;;;;3.30;1.23;;;30.50;68.60;;;;;;5034788;28;20573;-87